Latest Weather Observations for Eildon Fire Tower

IDV60801

Issued at 7:31 pm EST Sunday 5 July 2015 (issued every 30 minutes, with the page automatically refreshed every 10 minutes)

About weather observations | Map of weather stations | Latest weather observations for VIC | Other Formats
Station Details ID: 088164 Name: EILDON FIRE TOWER Lat: -37.21 Lon: 145.84 Height: 637.0 m
Data from the previous 72 hours. | See also: Recent months at Eildon Fire Tower
Date/Time
EST
Temp
°C
App
Temp
°C
Dew
Point
Rel
Hum
%
Delta-T
°C
Wind Press
QNH
hPa
Press
MSL
hPa
Rain
since 9 am
mm
Dir
 
Spd
km/h
Gust
km/h
Spd
kts
Gust
kts
05/07:30pm 4.6 1.4 3.1 90 0.6 NNE 9 17 5 9 - - 0.0
05/07:00pm 4.6 1.8 2.9 89 0.7 NNE 7 13 4 7 - - 0.0
05/06:30pm 4.8 1.9 2.8 87 0.8 NNE 7 9 4 5 - - 0.0
05/06:00pm 5.4 2.6 3.1 85 1.0 N 7 9 4 5 - - 0.0
05/05:30pm 5.4 3.1 2.9 84 1.1 NNE 4 7 2 4 - - 0.0
05/05:00pm 5.5 3.2 3.0 84 1.1 N 4 6 2 3 - - 0.0
05/04:30pm 5.6 3.3 2.9 83 1.2 NNE 4 6 2 3 - - 0.0
05/04:00pm 5.8 3.2 3.0 82 1.2 NNE 6 9 3 5 - - 0.0
05/03:30pm 6.0 3.7 3.0 81 1.3 NE 4 6 2 3 - - 0.0
05/03:00pm 6.0 3.3 2.6 79 1.5 NE 6 7 3 4 - - 0.0
05/02:30pm 6.2 3.4 3.2 81 1.3 NE 7 9 4 5 - - 0.0
05/02:00pm 5.8 3.0 3.0 82 1.2 ENE 7 11 4 6 - - 0.0
05/01:30pm 5.7 2.9 2.9 82 1.2 NE 7 9 4 5 - - 0.0
05/01:00pm 5.7 3.1 3.2 84 1.1 NE 6 11 3 6 - - 0.0
05/12:30pm 5.5 2.7 3.2 85 1.0 NE 7 9 4 5 - - 0.0
05/12:00pm 5.3 1.7 3.0 85 1.0 ENE 11 13 6 7 - - 0.0
05/11:30am 5.5 3.0 3.5 87 0.9 NE 6 11 3 6 - - 0.0
05/11:00am 5.3 2.6 3.5 88 0.8 NE 7 11 4 6 - - 0.0
05/10:30am 5.0 2.3 2.7 85 1.0 NNE 6 9 3 5 - - 0.0
05/10:00am 5.0 2.3 2.9 86 0.9 NNE 6 9 3 5 - - 0.0
05/09:30am 4.8 2.5 2.8 87 0.8 N 4 6 2 3 - - 0.0
05/09:00am 4.6 1.8 2.1 84 1.0 N 6 7 3 4 - - 0.4
05/08:30am 4.3 1.5 2.2 86 0.9 NW 6 9 3 5 - - 0.4
05/08:00am 4.0 1.3 2.4 89 0.7 NNE 6 7 3 4 - - 0.4
05/07:30am 3.9 1.6 2.7 92 0.5 N 4 4 2 2 - - 0.4
05/07:00am 3.8 1.5 2.6 92 0.5 NE 4 6 2 3 - - 0.4
05/06:30am 3.8 0.6 2.8 93 0.4 NNE 9 13 5 7 - - 0.4
05/06:00am 3.9 1.0 2.7 92 0.5 NNE 7 11 4 6 - - 0.4
05/05:30am 3.8 1.1 2.5 91 0.5 NNE 6 9 3 5 - - 0.4
05/05:00am 3.8 0.5 2.5 91 0.5 NNE 9 11 5 6 - - 0.4
05/04:30am 4.0 1.1 2.7 91 0.5 NNE 7 11 4 6 - - 0.4
05/04:00am 4.0 0.7 2.7 91 0.5 NE 9 11 5 6 - - 0.4
05/03:30am 4.0 1.3 2.5 90 0.6 NE 6 7 3 4 - - 0.4
05/03:00am 3.9 1.2 2.6 91 0.5 NE 6 7 3 4 - - 0.4
05/02:30am 3.8 0.9 2.8 93 0.4 NE 7 9 4 5 - - 0.4
05/02:00am 3.8 1.0 2.9 94 0.4 NE 7 9 4 5 - - 0.4
05/01:30am 3.8 1.1 2.8 93 0.4 NNE 6 9 3 5 - - 0.4
05/01:00am 3.8 0.6 2.9 94 0.4 NNE 9 11 5 6 - - 0.4
05/12:30am 3.8 0.6 2.9 94 0.4 NE 9 13 5 7 - - 0.4
05/12:00am 3.8 0.2 2.8 93 0.4 NE 11 13 6 7 - - 0.4
 
Date/Time
EST
Temp
°C
App
Temp
°C
Dew
Point
Rel
Hum
%
Delta-T
°C
Wind Press
QNH
hPa
Press
MSL
hPa
Rain
since 9 am
mm
Dir
 
Spd
km/h
Gust
km/h
Spd
kts
Gust
kts
04/11:30pm 3.7 0.5 3.0 95 0.3 NNE 9 11 5 6 - - 0.4
04/11:00pm 3.6 0.0 3.0 96 0.3 NE 11 15 6 8 - - 0.4
04/10:30pm 3.6 0.0 3.0 96 0.3 NNE 11 13 6 7 - - 0.4
04/10:00pm 3.6 -0.3 3.2 97 0.2 NE 13 15 7 8 - - 0.4
04/09:30pm 3.5 0.3 3.1 97 0.2 NE 9 11 5 6 - - 0.4
04/09:00pm 3.5 0.3 3.1 97 0.2 ENE 9 11 5 6 - - 0.4
04/08:30pm 3.4 0.2 3.0 97 0.2 ENE 9 11 5 6 - - 0.4
04/08:00pm 3.4 -0.2 3.1 98 0.1 ENE 11 11 6 6 - - 0.4
04/07:30pm 3.2 -0.4 2.9 98 0.1 E 11 13 6 7 - - 0.4
04/07:00pm 3.1 -0.5 2.8 98 0.1 E 11 11 6 6 - - 0.4
04/06:30pm 3.1 -0.5 2.7 97 0.2 E 11 13 6 7 - - 0.4
04/06:00pm 3.1 0.2 2.7 97 0.2 E 7 9 4 5 - - 0.4
04/05:30pm 3.2 0.5 2.6 96 0.2 NE 6 7 3 4 - - 0.4
04/05:00pm 3.3 0.6 2.4 94 0.4 NE 6 6 3 3 - - 0.4
04/04:30pm 3.7 1.4 2.7 93 0.4 NNE 4 6 2 3 - - 0.4
04/04:00pm 3.9 1.1 2.3 89 0.7 N 6 7 3 4 - - 0.2
04/03:30pm 4.1 1.3 1.8 85 0.9 NNE 6 7 3 4 - - 0.2
04/03:00pm 4.4 2.0 2.4 87 0.8 NNE 4 9 2 5 - - 0.2
04/02:30pm 4.4 1.9 1.8 83 1.1 NNE 4 7 2 4 - - 0.0
04/02:00pm 4.9 2.9 2.3 83 1.1 NE 2 4 1 2 - - 0.0
04/01:30pm 4.6 1.6 2.1 84 1.0 NE 7 9 4 5 - - 0.0
04/01:00pm 4.1 1.3 2.1 87 0.8 NNE 6 7 3 4 - - 0.0
04/12:30pm 3.6 1.5 1.6 87 0.8 N 2 4 1 2 - - 0.0
04/12:00pm 3.8 1.7 1.4 84 1.0 NNE 2 6 1 3 - - 0.0
04/11:30am 3.9 1.0 1.3 83 1.1 NNE 6 7 3 4 - - 0.0
04/11:00am 3.6 1.0 1.2 84 1.0 NE 4 6 2 3 - - 0.0
04/10:30am 3.6 0.7 1.3 85 0.9 NE 6 9 3 5 - - 0.0
04/10:00am 3.6 0.7 1.5 86 0.9 NNE 6 9 3 5 - - 0.0
04/09:30am 3.1 0.5 1.0 86 0.8 NNE 4 6 2 3 - - 0.0
04/09:00am 2.8 -0.2 1.0 88 0.7 NNE 6 7 3 4 - - 0.0
04/08:30am 2.8 -0.3 1.5 91 0.5 NNE 7 11 4 6 - - 0.0
04/08:00am 2.6 -0.3 1.3 91 0.5 NNE 6 7 3 4 - - 0.0
04/07:30am 2.5 -0.4 1.2 91 0.5 NNE 6 9 3 5 - - 0.0
04/07:00am 2.5 -0.4 1.3 92 0.5 N 6 9 3 5 - - 0.0
04/06:30am 2.5 -0.1 1.0 90 0.6 N 4 6 2 3 - - 0.0
04/06:00am 2.5 -0.1 0.9 89 0.6 N 4 7 2 4 - - 0.0
04/05:30am 2.5 -0.7 1.0 90 0.6 N 7 7 4 4 - - 0.0
04/05:00am 2.5 -0.2 0.6 87 0.7 NNW 4 4 2 2 - - 0.0
04/04:30am 2.5 -0.2 0.4 86 0.8 NNW 4 6 2 3 - - 0.0
04/04:00am 2.6 0.3 0.7 87 0.7 NW 2 4 1 2 - - 0.0
04/03:30am 3.1 -0.1 -0.4 78 1.3 WNW 6 7 3 4 - - 0.0
04/03:00am 2.7 -0.4 0.4 85 0.9 NNW 6 7 3 4 - - 0.0
04/02:30am 3.1 0.3 -0.7 76 1.5 NW 4 6 2 3 - - 0.0
04/02:00am 3.3 -0.1 -0.9 74 1.6 NW 7 9 4 5 - - 0.0
04/01:30am 3.3 -0.5 -0.7 75 1.5 WNW 9 13 5 7 - - 0.0
04/01:00am 3.4 -0.4 -0.6 75 1.5 WNW 9 13 5 7 - - 0.0
04/12:30am 3.3 -0.1 -0.3 77 1.4 NW 7 11 4 6 - - 0.0
04/12:00am 3.4 -0.3 -0.1 78 1.4 NW 9 13 5 7 - - 0.0
 
Date/Time
EST
Temp
°C
App
Temp
°C
Dew
Point
Rel
Hum
%
Delta-T
°C
Wind Press
QNH
hPa
Press
MSL
hPa
Rain
since 9 am
mm
Dir
 
Spd
km/h
Gust
km/h
Spd
kts
Gust
kts
03/11:30pm 3.3 0.0 0.0 79 1.3 NW 7 9 4 5 - - 0.0
03/11:00pm 3.6 -0.1 0.0 77 1.4 WNW 9 15 5 8 - - 0.0
03/10:30pm 3.8 -0.3 -0.4 74 1.6 NNW 11 13 6 7 - - 0.0
03/10:00pm 4.0 0.6 -0.4 73 1.7 NNW 7 11 4 6 - - 0.0
03/09:30pm 4.1 0.7 -0.5 72 1.8 NNW 7 9 4 5 - - 0.0
03/09:00pm 4.0 0.8 -0.6 72 1.8 NW 6 9 3 5 - - 0.0
03/08:30pm 4.1 0.9 -0.5 72 1.8 NW 6 11 3 6 - - 0.0
03/08:00pm 3.9 0.7 -0.5 73 1.7 NNW 6 7 3 4 - - 0.0
03/07:30pm 3.9 0.6 -0.1 75 1.6 N 7 11 4 6 - - 0.0
03/07:00pm 3.9 0.6 0.1 76 1.5 N 7 9 4 5 - - 0.0
03/06:30pm 3.8 0.2 0.5 79 1.3 N 9 11 5 6 - - 0.0
03/06:00pm 3.8 0.8 0.7 80 1.2 NE 6 7 3 4 - - 0.0
03/05:30pm 3.9 2.0 0.4 78 1.4 CALM 0 2 0 1 - - 0.0
03/05:00pm 4.0 1.0 0.7 79 1.3 W 6 7 3 4 - - 0.0
03/04:30pm 4.0 1.1 1.4 83 1.1 WNW 6 7 3 4 - - 0.0
03/04:00pm 4.1 1.0 1.3 82 1.1 W 7 11 4 6 - - 0.0
03/03:30pm 4.2 1.3 1.7 84 1.0 W 6 7 3 4 - - 0.0
03/03:00pm 4.2 0.3 1.2 81 1.2 W 11 15 6 8 - - 0.0
03/02:30pm 4.5 1.2 2.5 87 0.8 W 9 13 5 7 - - 0.0
03/02:00pm 4.7 1.4 2.6 86 0.9 WSW 9 15 5 8 - - 0.0
03/01:30pm 4.9 2.0 2.4 84 1.1 W 7 9 4 5 - - 0.0
03/01:00pm 4.8 2.6 1.1 77 1.5 NW 2 7 1 4 - - 0.0
03/12:30pm 4.6 1.7 1.3 79 1.3 SW 6 9 3 5 - - 0.0
03/12:00pm 4.5 2.4 1.9 83 1.1 SSE 2 6 1 3 - - 0.0
03/11:30am 4.7 2.6 3.8 94 0.4 SSE 4 6 2 3 - - 0.0
03/11:00am 4.2 2.8 3.8 97 0.2 CALM 0 4 0 2 - - 0.0
03/10:30am 3.0 1.1 2.6 97 0.2 WNW 2 4 1 2 - - 0.0
03/10:00am 2.5 -0.3 2.1 97 0.2 W 6 7 3 4 - - 0.0
03/09:30am 2.4 -1.0 1.8 96 0.2 WSW 9 13 5 7 - - 0.0
03/09:00am 2.6 0.5 2.0 96 0.2 ENE 2 4 1 2 - - 1.4
03/08:30am 2.0 -0.6 1.1 94 0.4 ENE 4 6 2 3 - - 1.4
03/08:00am 1.9 0.1 1.3 96 0.2 CALM 0 0 0 0 - - 1.4
03/07:30am 1.4 -0.9 0.5 94 0.3 SSW 2 4 1 2 - - 1.4
03/07:00am 2.2 -1.3 1.3 94 0.4 SSW 9 13 5 7 - - 1.4
03/06:30am 1.6 -1.4 1.0 96 0.2 WSW 6 7 3 4 - - 1.4
03/06:00am 2.3 -0.1 1.9 97 0.2 SSW 4 7 2 4 - - 1.4
03/05:30am 2.1 -1.3 1.7 97 0.2 WSW 9 13 5 7 - - 1.4
03/05:00am 1.9 -1.6 1.3 96 0.2 NNW 9 13 5 7 - - 1.4
03/04:30am 2.2 -0.7 1.6 96 0.2 SW 6 7 3 4 - - 1.4
03/04:00am 2.3 -1.5 1.9 97 0.2 WSW 11 13 6 7 - - 1.4
03/03:30am 2.2 -0.6 1.8 97 0.2 S 6 6 3 3 - - 1.4
03/03:00am 2.1 -0.4 1.5 96 0.2 WSW 4 7 2 4 - - 1.4
03/02:30am 2.4 -0.1 1.8 96 0.2 SSW 4 6 2 3 - - 1.4
03/02:00am 2.9 -1.2 2.5 97 0.2 SW 13 17 7 9 - - 1.4
03/01:30am 2.4 -1.3 2.1 98 0.1 WSW 11 13 6 7 - - 1.4
03/01:00am 2.3 -1.5 1.9 97 0.2 WSW 11 15 6 8 - - 1.4
03/12:30am 2.3 -1.5 1.9 97 0.2 WSW 11 15 6 8 - - 1.4
03/12:00am 2.2 -1.6 1.6 96 0.2 W 11 13 6 7 - - 1.4
 
Date/Time
EST
Temp
°C
App
Temp
°C
Dew
Point
Rel
Hum
%
Delta-T
°C
Wind Press
QNH
hPa
Press
MSL
hPa
Rain
since 9 am
mm
Dir
 
Spd
km/h
Gust
km/h
Spd
kts
Gust
kts
02/11:30pm 2.5 -1.7 1.8 95 0.3 WSW 13 17 7 9 - - 1.4
02/11:00pm 3.1 -1.8 2.2 94 0.4 WSW 17 24 9 13 - - 1.4
02/10:30pm 2.9 -1.2 2.0 94 0.4 WSW 13 17 7 9 - - 1.4
02/10:00pm 3.1 0.1 1.8 91 0.5 WSW 7 13 4 7 - - 1.4
02/09:30pm 3.5 -1.4 1.7 88 0.7 SW 17 26 9 14 - - 1.4
02/09:00pm 3.3 -1.6 2.0 91 0.5 WSW 17 26 9 14 - - 1.4
02/08:30pm 2.7 -1.1 1.7 93 0.4 WSW 11 20 6 11 - - 1.4
02/08:00pm 3.5 -2.4 1.7 88 0.7 WSW 22 33 12 18 - - 1.4

Other Formats:

Comma delimited format used in spreadsheet applications
http://www.bom.gov.au/fwo/IDV60801/IDV60801.94881.axf

JavaScript Object Notation format (JSON) in row-major order
http://www.bom.gov.au/fwo/IDV60801/IDV60801.94881.json